createdAt,value
2018-11-26T00:01:08.346Z,28.60
2018-11-26T00:03:36.805Z,28.90
2018-11-26T00:06:05.094Z,28.00
2018-11-26T00:08:33.110Z,29.80
2018-11-26T00:11:44.887Z,28.20
2018-11-26T00:14:12.898Z,27.77
2018-11-26T00:16:40.980Z,28.10
2018-11-26T00:19:08.968Z,27.33
2018-11-26T00:21:36.990Z,25.27
2018-11-26T00:24:05.056Z,25.00
2018-11-26T00:26:33.102Z,27.67
2018-11-26T00:29:01.099Z,28.00
2018-11-26T00:31:29.129Z,29.70
2018-11-26T00:33:57.135Z,27.07
2018-11-26T00:36:25.129Z,26.70
2018-11-26T00:38:53.148Z,25.50
2018-11-26T00:41:21.141Z,25.40
2018-11-26T00:43:49.146Z,28.03
2018-11-26T00:46:17.189Z,25.60
2018-11-26T00:48:45.209Z,27.27
2018-11-26T00:51:13.217Z,28.27
2018-11-26T00:53:41.285Z,25.10
2018-11-26T00:56:09.285Z,24.87
2018-11-26T00:58:37.290Z,28.43
2018-11-26T01:01:05.658Z,28.07
2018-11-26T01:03:33.693Z,24.63
2018-11-26T01:06:01.696Z,29.10
2018-11-26T01:08:29.793Z,30.53
2018-11-26T01:10:57.801Z,26.73
2018-11-26T01:13:25.856Z,27.83
2018-11-26T01:15:53.930Z,26.97
2018-11-26T01:18:21.993Z,27.13
2018-11-26T01:20:50.098Z,23.97
2018-11-26T01:23:18.101Z,26.93
2018-11-26T01:25:46.266Z,25.73
2018-11-26T01:28:14.304Z,27.20
2018-11-26T01:30:42.319Z,29.10
2018-11-26T01:33:10.318Z,29.80
2018-11-26T01:35:38.318Z,30.63
2018-11-26T01:38:06.329Z,28.03
2018-11-26T01:40:39.838Z,27.53
2018-11-26T01:43:07.853Z,30.27
2018-11-26T01:45:36.073Z,26.70
2018-11-26T01:48:04.093Z,27.33
2018-11-26T01:50:32.090Z,29.40
2018-11-26T01:53:00.118Z,29.60
2018-11-26T01:55:28.121Z,26.70
2018-11-26T01:57:56.149Z,28.87
2018-11-26T02:00:25.458Z,26.90
2018-11-26T02:02:53.736Z,26.40
2018-11-26T02:05:21.768Z,27.03
2018-11-26T02:07:49.767Z,24.80
2018-11-26T02:10:19.051Z,29.20
2018-11-26T02:12:47.130Z,26.77
2018-11-26T02:15:26.625Z,26.53
2018-11-26T02:17:54.685Z,25.20
2018-11-26T02:20:22.829Z,23.23
2018-11-26T02:22:50.857Z,24.60
2018-11-26T02:25:18.870Z,24.67
2018-11-26T02:27:46.913Z,26.23
2018-11-26T02:30:14.985Z,22.57
2018-11-26T02:32:43.008Z,25.33
2018-11-26T02:35:11.046Z,23.57
2018-11-26T02:37:39.052Z,24.53
2018-11-26T02:40:09.396Z,20.20
2018-11-26T02:42:37.397Z,23.17
2018-11-26T02:45:06.014Z,22.07
2018-11-26T02:47:34.018Z,23.13
2018-11-26T02:50:02.146Z,24.27
2018-11-26T02:52:30.193Z,23.90
2018-11-26T02:54:58.314Z,22.10
2018-11-26T02:57:26.333Z,20.67
2018-11-26T02:59:54.341Z,18.03
2018-11-26T03:02:22.389Z,21.23
2018-11-26T03:04:50.449Z,22.37
2018-11-26T03:07:18.472Z,19.77
2018-11-26T03:09:46.516Z,19.53
2018-11-26T03:12:14.521Z,21.10
2018-11-26T03:14:42.538Z,20.97
2018-11-26T03:17:10.541Z,20.67
2018-11-26T03:19:38.686Z,17.10
2018-11-26T03:22:06.754Z,17.97
2018-11-26T03:24:34.821Z,17.20
2018-11-26T03:27:02.997Z,18.13
2018-11-26T03:29:31.070Z,18.33
2018-11-26T03:31:59.263Z,18.00
2018-11-26T03:34:27.273Z,17.03
2018-11-26T03:36:55.265Z,14.70
2018-11-26T03:39:23.305Z,17.33
2018-11-26T03:41:51.325Z,17.50
2018-11-26T03:44:19.313Z,19.70
2018-11-26T03:46:47.310Z,16.77
2018-11-26T03:49:15.322Z,16.57
2018-11-26T03:51:43.320Z,16.40
2018-11-26T03:54:11.330Z,17.20
2018-11-26T03:56:39.362Z,15.70
2018-11-26T03:59:07.388Z,15.43
2018-11-26T04:01:35.458Z,12.87
2018-11-26T04:04:03.513Z,16.57
2018-11-26T04:06:31.607Z,15.73
2018-11-26T04:08:59.610Z,15.87
2018-11-26T04:11:27.636Z,12.83
2018-11-26T04:13:55.709Z,14.13
2018-11-26T04:16:23.792Z,14.30
2018-11-26T04:18:51.791Z,15.60
2018-11-26T04:21:19.853Z,15.53
2018-11-26T04:23:47.882Z,14.27
2018-11-26T04:26:15.946Z,12.70
2018-11-26T04:28:43.965Z,14.30
2018-11-26T04:31:11.985Z,14.23
2018-11-26T04:33:39.981Z,13.57
2018-11-26T04:36:07.989Z,13.60
2018-11-26T04:38:35.990Z,16.57
2018-11-26T04:41:03.985Z,12.77
2018-11-26T04:43:31.986Z,14.30
2018-11-26T04:46:00.025Z,16.43
2018-11-26T04:48:28.106Z,13.80
2018-11-26T04:50:56.119Z,16.03
2018-11-26T04:53:24.121Z,17.60
2018-11-26T04:55:52.149Z,14.37
2018-11-26T04:58:20.161Z,17.03
2018-11-26T05:00:48.151Z,15.53
2018-11-26T05:03:16.199Z,16.90
2018-11-26T05:05:44.213Z,14.80
2018-11-26T05:08:12.205Z,16.10
2018-11-26T05:10:40.216Z,17.23
2018-11-26T05:13:08.223Z,17.33
2018-11-26T05:15:36.241Z,16.33
2018-11-26T05:18:04.432Z,17.23
2018-11-26T05:20:32.518Z,17.30
2018-11-26T05:23:00.528Z,17.20
2018-11-26T05:25:28.526Z,17.80
2018-11-26T05:27:56.518Z,17.00
2018-11-26T05:30:24.525Z,18.25
2018-11-26T05:32:52.520Z,16.00
2018-11-26T05:35:20.517Z,17.83
2018-11-26T05:37:48.509Z,18.87
2018-11-26T05:40:16.513Z,16.07
2018-11-26T05:42:44.613Z,16.03
2018-11-26T05:45:13.981Z,15.37
2018-11-26T05:47:41.963Z,15.63
2018-11-26T05:50:11.144Z,19.17
2018-11-26T05:52:39.796Z,19.70
2018-11-26T05:55:09.773Z,15.17
2018-11-26T05:57:37.776Z,18.43
2018-11-26T06:00:11.818Z,20.00
2018-11-26T06:02:39.825Z,18.13
2018-11-26T06:05:08.182Z,15.67
2018-11-26T06:07:36.189Z,18.93
2018-11-26T06:10:04.225Z,19.47
2018-11-26T06:12:32.288Z,16.00
2018-11-26T06:15:00.306Z,18.60
2018-11-26T06:17:28.302Z,18.60
2018-11-26T06:19:56.442Z,19.23
2018-11-26T06:22:24.506Z,16.63
2018-11-26T06:24:52.496Z,19.47
2018-11-26T06:27:20.541Z,18.17
2018-11-26T06:29:48.637Z,18.30
2018-11-26T06:32:16.641Z,19.20
2018-11-26T06:34:44.640Z,18.80
2018-11-26T06:37:12.646Z,17.77
2018-11-26T06:39:40.841Z,18.47
2018-11-26T06:42:08.841Z,16.17
2018-11-26T06:44:36.834Z,13.73
2018-11-26T06:47:05.171Z,19.40
2018-11-26T06:49:33.190Z,20.60
2018-11-26T06:52:01.255Z,19.53
2018-11-26T06:54:29.254Z,19.83
2018-11-26T06:56:57.257Z,19.33
2018-11-26T06:59:25.245Z,19.37
2018-11-26T07:01:53.258Z,19.70
2018-11-26T07:04:21.281Z,21.27
2018-11-26T07:06:49.292Z,19.13
2018-11-26T07:09:17.274Z,15.87
2018-11-26T07:11:45.275Z,19.43
2018-11-26T07:14:13.263Z,20.30
2018-11-26T07:16:41.256Z,20.33
2018-11-26T07:19:09.242Z,20.23
2018-11-26T07:21:37.244Z,20.87
2018-11-26T07:24:05.442Z,20.83
2018-11-26T07:26:33.495Z,20.27
2018-11-26T07:29:01.501Z,20.50
2018-11-26T07:31:29.743Z,22.57
2018-11-26T07:33:57.747Z,19.53
2018-11-26T07:36:25.745Z,21.60
2018-11-26T07:38:53.737Z,19.07
2018-11-26T07:41:21.726Z,19.63
2018-11-26T07:43:49.714Z,19.23
2018-11-26T07:46:17.709Z,20.70
2018-11-26T07:48:45.757Z,21.83
2018-11-26T07:51:13.781Z,20.50
2018-11-26T07:53:41.814Z,16.47
2018-11-26T07:56:09.822Z,19.30
2018-11-26T07:58:37.839Z,19.60
2018-11-26T08:01:06.306Z,17.90
2018-11-26T08:03:34.594Z,18.50
2018-11-26T08:06:08.745Z,19.23
2018-11-26T08:08:30.596Z,20.77
2018-11-26T08:10:58.602Z,20.77
2018-11-26T08:13:26.600Z,21.07
2018-11-26T08:15:54.614Z,19.37
2018-11-26T08:18:22.629Z,20.23
2018-11-26T08:20:50.687Z,21.30
2018-11-26T08:23:18.691Z,17.70
2018-11-26T08:25:46.690Z,19.90
2018-11-26T08:28:14.681Z,19.60
2018-11-26T08:30:42.677Z,18.47
2018-11-26T08:33:10.669Z,19.27
2018-11-26T08:35:38.671Z,18.10
2018-11-26T08:38:07.588Z,18.40
2018-11-26T08:40:40.983Z,17.77
2018-11-26T08:43:14.585Z,18.07
2018-11-26T08:45:51.186Z,18.07
2018-11-26T08:48:24.731Z,17.47
2018-11-26T08:50:52.728Z,19.17
2018-11-26T08:53:20.760Z,18.80
2018-11-26T08:55:48.810Z,17.00
2018-11-26T08:58:16.801Z,17.83
2018-11-26T09:00:44.801Z,16.63
2018-11-26T09:03:18.311Z,17.40
2018-11-26T09:05:50.472Z,15.00
2018-11-26T09:08:18.605Z,17.50
2018-11-26T09:10:46.599Z,16.83
2018-11-26T09:13:14.609Z,15.23
2018-11-26T09:15:42.595Z,16.13
2018-11-26T09:18:10.585Z,14.30
2018-11-26T09:20:38.565Z,14.80
2018-11-26T09:23:06.851Z,15.83
2018-11-26T09:25:34.858Z,15.27
2018-11-26T09:28:02.859Z,14.93
2018-11-26T09:30:31.090Z,12.20
2018-11-26T09:32:58.944Z,11.57
2018-11-26T09:35:27.006Z,11.43
2018-11-26T09:37:55.069Z,12.67
2018-11-26T09:40:23.090Z,13.80
2018-11-26T09:42:51.070Z,13.80
2018-11-26T09:45:19.073Z,12.43
2018-11-26T09:47:47.107Z,13.10
2018-11-26T09:50:16.249Z,11.70
2018-11-26T09:52:44.232Z,12.57
2018-11-26T09:55:13.010Z,10.40
2018-11-26T09:57:41.074Z,11.53
2018-11-26T10:00:12.542Z,11.20
2018-11-26T10:02:41.076Z,11.27
2018-11-26T10:05:12.467Z,9.57
2018-11-26T10:07:40.474Z,11.87
2018-11-26T10:10:09.964Z,7.10
2018-11-26T10:12:38.305Z,9.00
2018-11-26T10:15:16.257Z,10.10
2018-11-26T10:17:44.255Z,10.30
2018-11-26T10:20:12.541Z,8.47
2018-11-26T10:22:40.925Z,8.70
2018-11-26T10:25:13.158Z,7.43
2018-11-26T10:27:41.325Z,9.03
2018-11-26T10:30:11.252Z,9.80
2018-11-26T10:32:39.510Z,9.87
2018-11-26T10:35:09.761Z,10.10
2018-11-26T10:37:37.974Z,9.40
2018-11-26T10:40:09.119Z,10.37
2018-11-26T10:42:37.139Z,9.10
2018-11-26T10:45:06.230Z,9.00
2018-11-26T10:47:34.209Z,9.20
2018-11-26T10:50:02.201Z,9.90
2018-11-26T10:52:30.285Z,11.03
2018-11-26T10:54:58.290Z,9.57
2018-11-26T10:57:26.298Z,11.90
2018-11-26T10:59:54.291Z,11.10
2018-11-26T11:02:27.646Z,11.00
2018-11-26T11:04:55.649Z,11.93
2018-11-26T11:07:23.658Z,10.90
2018-11-26T11:09:51.654Z,10.53
2018-11-26T11:12:19.657Z,9.97
2018-11-26T11:14:47.649Z,12.90
2018-11-26T11:17:15.698Z,13.00
2018-11-26T11:19:43.697Z,11.13
2018-11-26T11:22:12.543Z,12.20
2018-11-26T11:24:40.537Z,12.10
2018-11-26T11:27:08.540Z,11.83
2018-11-26T11:29:36.834Z,11.30
2018-11-26T11:32:04.569Z,9.73
2018-11-26T11:34:32.563Z,9.43
2018-11-26T11:37:00.595Z,11.07
2018-11-26T11:39:28.605Z,9.60
2018-11-26T11:41:56.595Z,9.43
2018-11-26T11:44:24.595Z,9.07
2018-11-26T11:46:52.751Z,9.90
2018-11-26T11:49:20.755Z,9.30
2018-11-26T11:51:48.763Z,9.87
2018-11-26T11:54:16.761Z,9.07
2018-11-26T11:56:44.786Z,9.50
2018-11-26T11:59:12.779Z,7.37
2018-11-26T12:01:40.779Z,8.67
2018-11-26T12:04:08.799Z,7.70
2018-11-26T12:06:36.787Z,8.47
2018-11-26T12:09:07.982Z,8.77
2018-11-26T12:11:36.083Z,8.70
2018-11-26T12:14:04.083Z,7.97
2018-11-26T12:16:32.100Z,9.37
2018-11-26T12:19:00.264Z,8.60
2018-11-26T12:21:28.262Z,8.17
2018-11-26T12:23:56.374Z,8.37
2018-11-26T12:26:24.397Z,7.50
2018-11-26T12:28:52.552Z,8.03
2018-11-26T12:31:20.618Z,7.17
2018-11-26T12:33:48.649Z,8.60
2018-11-26T12:36:16.682Z,7.70
2018-11-26T12:38:44.726Z,7.40
2018-11-26T12:41:12.731Z,7.77
2018-11-26T12:43:40.755Z,7.70
2018-11-26T12:46:08.859Z,7.60
2018-11-26T12:48:36.847Z,6.60
2018-11-26T12:51:05.183Z,6.50
2018-11-26T12:53:33.159Z,6.27
2018-11-26T12:56:01.130Z,6.93
2018-11-26T12:58:29.134Z,7.20
2018-11-26T13:00:57.125Z,7.60
2018-11-26T13:03:25.117Z,7.03
2018-11-26T13:05:53.100Z,6.80
2018-11-26T13:08:21.099Z,6.97
2018-11-26T13:10:49.143Z,6.83
2018-11-26T13:13:17.290Z,7.07
2018-11-26T13:15:45.326Z,7.87
2018-11-26T13:18:13.334Z,7.10
2018-11-26T13:20:41.350Z,8.07
2018-11-26T13:23:09.904Z,8.10
2018-11-26T13:25:41.802Z,6.40
2018-11-26T13:28:07.835Z,6.40
2018-11-26T13:30:41.359Z,7.23
2018-11-26T13:33:11.891Z,8.57
2018-11-26T13:35:39.883Z,7.20
2018-11-26T13:38:08.633Z,6.83
2018-11-26T13:40:36.633Z,9.47
2018-11-26T13:43:07.639Z,5.23
2018-11-26T13:45:37.191Z,5.87
2018-11-26T13:48:07.154Z,5.97
2018-11-26T13:50:36.871Z,5.47
2018-11-26T13:53:05.369Z,5.90
2018-11-26T13:55:33.342Z,6.17
2018-11-26T13:58:01.458Z,6.10
2018-11-26T14:00:29.440Z,6.08
2018-11-26T14:02:57.446Z,5.37
2018-11-26T14:05:25.459Z,5.87
2018-11-26T14:07:53.511Z,6.37
2018-11-26T14:10:23.667Z,6.93
2018-11-26T14:13:01.160Z,5.30
2018-11-26T14:15:29.203Z,6.43
2018-11-26T14:17:57.207Z,4.97
2018-11-26T14:20:25.252Z,5.73
2018-11-26T14:22:53.232Z,5.67
2018-11-26T14:25:21.216Z,4.90
2018-11-26T14:27:49.432Z,3.87
2018-11-26T14:30:22.671Z,4.97
2018-11-26T14:32:50.675Z,4.90
2018-11-26T14:35:18.662Z,4.83
2018-11-26T14:37:48.895Z,5.40
2018-11-26T14:40:28.915Z,4.77
2018-11-26T14:42:56.934Z,4.80
2018-11-26T14:45:24.973Z,4.90
2018-11-26T14:47:53.079Z,5.17
2018-11-26T14:50:21.059Z,5.33
2018-11-26T14:52:49.699Z,6.90
2018-11-26T14:55:20.923Z,5.30
2018-11-26T14:57:48.937Z,7.53
2018-11-26T15:00:17.995Z,6.63
2018-11-26T15:02:46.000Z,6.30
2018-11-26T15:05:14.254Z,5.30
2018-11-26T15:07:42.251Z,4.53
2018-11-26T15:10:17.078Z,5.90
2018-11-26T15:12:45.501Z,5.17
2018-11-26T15:15:18.911Z,4.80
2018-11-26T15:17:46.931Z,4.13
2018-11-26T15:20:17.075Z,4.63
2018-11-26T15:22:45.077Z,3.97
2018-11-26T15:25:14.191Z,4.47
2018-11-26T15:27:42.283Z,4.73
2018-11-26T15:30:12.432Z,5.10
2018-11-26T15:32:46.970Z,4.33
2018-11-26T15:35:16.091Z,4.90
2018-11-26T15:37:44.282Z,4.80
2018-11-26T15:40:13.235Z,5.40
2018-11-26T15:42:41.267Z,5.53
2018-11-26T15:45:40.242Z,5.50
2018-11-26T15:48:09.815Z,4.43
2018-11-26T15:50:37.835Z,4.47
2018-11-26T15:53:06.864Z,5.00
2018-11-26T15:55:34.875Z,5.57
2018-11-26T15:58:02.866Z,5.23
2018-11-26T16:00:30.865Z,5.13
2018-11-26T16:02:58.932Z,5.00
2018-11-26T16:05:30.169Z,4.23
2018-11-26T16:08:02.797Z,4.03
2018-11-26T16:10:30.798Z,5.00
2018-11-26T16:13:00.243Z,3.70
2018-11-26T16:15:29.730Z,5.50
2018-11-26T16:17:59.287Z,4.80
2018-11-26T16:20:27.930Z,5.50
2018-11-26T16:22:56.847Z,5.40
2018-11-26T16:25:25.207Z,5.20
2018-11-26T16:27:53.222Z,5.70
2018-11-26T16:30:21.219Z,5.97
2018-11-26T16:32:53.697Z,5.07
2018-11-26T16:35:28.138Z,4.90
2018-11-26T16:37:56.131Z,5.50
2018-11-26T16:40:24.135Z,5.27
2018-11-26T16:42:52.187Z,4.77
2018-11-26T16:45:21.368Z,4.60
2018-11-26T16:47:50.532Z,6.00
2018-11-26T16:50:19.644Z,5.60
2018-11-26T16:52:47.731Z,6.30
2018-11-26T16:55:16.523Z,5.90
2018-11-26T16:57:44.523Z,5.50
2018-11-26T17:00:17.403Z,4.73
2018-11-26T17:02:46.158Z,5.33
2018-11-26T17:05:16.420Z,5.60
2018-11-26T17:07:44.467Z,5.67
2018-11-26T17:10:12.550Z,5.13
2018-11-26T17:12:41.047Z,7.00
2018-11-26T17:15:11.804Z,5.80
2018-11-26T17:17:39.815Z,5.87
2018-11-26T17:20:09.587Z,6.30
2018-11-26T17:22:37.603Z,6.50
2018-11-26T17:25:07.215Z,7.07
2018-11-26T17:27:35.228Z,5.23
2018-11-26T17:30:04.686Z,5.70
2018-11-26T17:32:32.734Z,5.37
2018-11-26T17:35:00.763Z,6.53
2018-11-26T17:37:28.768Z,6.40
2018-11-26T17:39:56.787Z,6.73
2018-11-26T17:42:24.802Z,5.37
2018-11-26T17:44:52.824Z,5.50
2018-11-26T17:47:20.823Z,5.90
2018-11-26T17:49:48.845Z,5.33
2018-11-26T17:52:16.832Z,6.00
2018-11-26T17:54:44.883Z,5.60
2018-11-26T17:57:12.874Z,4.53
2018-11-26T17:59:40.914Z,6.77
2018-11-26T18:02:08.914Z,6.53
2018-11-26T18:04:36.916Z,6.23
2018-11-26T18:07:04.918Z,5.30
2018-11-26T18:09:32.999Z,5.93
2018-11-26T18:12:01.075Z,6.60
2018-11-26T18:14:29.067Z,7.00
2018-11-26T18:16:57.194Z,5.87
2018-11-26T18:19:25.249Z,6.23
2018-11-26T18:21:53.255Z,5.80
2018-11-26T18:24:21.274Z,5.30
2018-11-26T18:26:49.321Z,6.00
2018-11-26T18:29:17.365Z,6.73
2018-11-26T18:31:45.507Z,4.83
2018-11-26T18:34:13.500Z,5.50
2018-11-26T18:36:41.574Z,6.10
2018-11-26T18:39:10.419Z,5.03
2018-11-26T18:41:38.455Z,5.30
2018-11-26T18:44:06.870Z,4.47
2018-11-26T18:46:34.913Z,4.97
2018-11-26T18:49:03.000Z,6.23
2018-11-26T18:51:31.199Z,4.80
2018-11-26T18:53:59.193Z,4.77
2018-11-26T18:56:27.227Z,4.03
2018-11-26T18:58:55.282Z,4.60
2018-11-26T19:01:23.306Z,5.27
2018-11-26T19:03:51.367Z,5.10
2018-11-26T19:06:19.428Z,4.77
2018-11-26T19:08:47.424Z,5.27
2018-11-26T19:11:16.834Z,4.50
2018-11-26T19:13:50.975Z,4.77
2018-11-26T19:16:21.399Z,5.50
2018-11-26T19:18:49.411Z,5.00
2018-11-26T19:21:17.495Z,5.90
2018-11-26T19:23:45.773Z,4.87
2018-11-26T19:26:13.765Z,5.50
2018-11-26T19:28:41.757Z,4.87
2018-11-26T19:31:09.804Z,5.10
2018-11-26T19:33:37.796Z,5.03
2018-11-26T19:36:06.584Z,4.60
2018-11-26T19:38:34.633Z,5.83
2018-11-26T19:41:02.773Z,4.80
2018-11-26T19:43:30.978Z,4.63
2018-11-26T19:45:58.986Z,4.63
2018-11-26T19:48:27.015Z,5.70
2018-11-26T19:50:55.060Z,5.50
2018-11-26T19:53:23.067Z,4.73
2018-11-26T19:55:51.537Z,4.93
2018-11-26T19:58:19.170Z,5.37
2018-11-26T20:00:47.247Z,5.90
2018-11-26T20:03:19.921Z,5.13
2018-11-26T20:05:55.907Z,4.70
2018-11-26T20:08:23.900Z,5.30
2018-11-26T20:10:52.227Z,5.00
2018-11-26T20:13:20.294Z,4.83
2018-11-26T20:15:48.316Z,4.70
2018-11-26T20:18:16.368Z,5.20
2018-11-26T20:20:44.537Z,5.50
2018-11-26T20:23:12.532Z,4.70
2018-11-26T20:25:41.697Z,5.60
2018-11-26T20:28:09.778Z,5.07
2018-11-26T20:30:37.941Z,6.10
2018-11-26T20:33:06.640Z,4.50
2018-11-26T20:35:34.850Z,4.70
2018-11-26T20:38:03.971Z,4.60
2018-11-26T20:40:32.007Z,4.80
2018-11-26T20:43:00.035Z,5.13
2018-11-26T20:45:28.129Z,5.00
2018-11-26T20:47:56.242Z,5.83
2018-11-26T20:50:26.362Z,5.40
2018-11-26T20:52:54.382Z,4.90
2018-11-26T20:55:23.653Z,5.00
2018-11-26T20:57:52.720Z,5.00
2018-11-26T21:00:21.906Z,4.43
2018-11-26T21:02:51.282Z,5.23
2018-11-26T21:05:19.344Z,4.97
2018-11-26T21:07:47.369Z,5.60
2018-11-26T21:10:16.168Z,5.80
2018-11-26T21:12:44.206Z,5.63
2018-11-26T21:15:13.567Z,5.70
2018-11-26T21:17:42.365Z,5.43
2018-11-26T21:20:15.220Z,5.13
2018-11-26T21:22:43.226Z,5.47
2018-11-26T21:25:13.937Z,4.67
2018-11-26T21:27:41.945Z,5.40
2018-11-26T21:30:16.933Z,6.30
2018-11-26T21:32:45.041Z,5.53
2018-11-26T21:35:15.210Z,6.10
2018-11-26T21:37:44.522Z,5.33
2018-11-26T21:40:13.623Z,5.00
2018-11-26T21:42:42.956Z,5.70
2018-11-26T21:45:13.499Z,6.03
2018-11-26T21:47:41.510Z,4.80
2018-11-26T21:50:11.093Z,5.47
2018-11-26T21:52:39.223Z,5.40
2018-11-26T21:55:15.911Z,6.03
2018-11-26T21:57:43.973Z,5.87
2018-11-26T22:00:21.088Z,5.60
2018-11-26T22:02:49.279Z,5.47
2018-11-26T22:05:17.288Z,5.33
2018-11-26T22:07:45.291Z,6.00
2018-11-26T22:10:14.403Z,5.40
2018-11-26T22:12:43.323Z,4.67
2018-11-26T22:15:12.527Z,6.07
2018-11-26T22:17:40.758Z,5.53
2018-11-26T22:20:11.427Z,5.40
2018-11-26T22:22:39.451Z,5.90
2018-11-26T22:25:08.839Z,6.10
2018-11-26T22:27:36.968Z,6.53
2018-11-26T22:30:09.230Z,5.97
2018-11-26T22:32:37.225Z,5.50
2018-11-26T22:35:05.767Z,5.03
2018-11-26T22:37:33.792Z,6.27
2018-11-26T22:40:01.862Z,5.50
2018-11-26T22:42:29.879Z,5.97
2018-11-26T22:44:58.112Z,5.60
2018-11-26T22:47:26.131Z,5.30
2018-11-26T22:49:54.218Z,6.50
2018-11-26T22:52:22.207Z,5.60
2018-11-26T22:54:51.231Z,6.80
2018-11-26T22:57:19.223Z,6.83
2018-11-26T22:59:47.274Z,5.03
2018-11-26T23:02:15.275Z,6.17
2018-11-26T23:04:43.402Z,6.30
2018-11-26T23:07:11.425Z,7.13
2018-11-26T23:09:40.565Z,6.50
2018-11-26T23:12:08.575Z,6.70
2018-11-26T23:14:36.588Z,7.30
2018-11-26T23:17:04.596Z,6.30
2018-11-26T23:19:32.640Z,7.30
2018-11-26T23:22:00.622Z,6.83
2018-11-26T23:24:28.682Z,6.73
2018-11-26T23:26:56.731Z,7.33
2018-11-26T23:29:24.723Z,8.50
2018-11-26T23:31:52.785Z,7.83
2018-11-26T23:34:20.775Z,6.90
2018-11-26T23:36:48.776Z,8.17
2018-11-26T23:39:16.876Z,8.03
2018-11-26T23:41:44.917Z,7.57
2018-11-26T23:44:12.895Z,6.80
2018-11-26T23:46:40.955Z,8.13
2018-11-26T23:49:08.963Z,8.30
2018-11-26T23:51:36.963Z,8.33
2018-11-26T23:54:05.037Z,8.57
2018-11-26T23:56:33.042Z,8.53
2018-11-26T23:59:01.134Z,7.90
